PWSweather.com
Personal Weather Stations
Station Observations
OAK1E
Piedmont Ave District, Oakland, CA 94611

Piedmont Ave DistrictOakland, CA 94611

Lat: 37.832205, Lon: -122.250229

Elevation: 176

Station Type: Davis Vantage Pro 2

http://www.mayacamaswx.com/Oakland1E/Oakland1E.htm

Latest ConditionsUpdated 6:30:00 AM PDT Monday, Sep 1, 2014
Currently Today's Max Today's Min Today's Average
Temperature 56.9°F13.8°C 60.5°F15.8°C 56.9°F13.8°C 58.8°F14.9°C
Dew Point 55.5°F13.1°C 57.4°F14.1°C 55.3°F12.9°C 56.4°F13.6°C
Winds Calm Calm Calm ECalm E - Calm Calm
Wind Gusts -- -- - -
Humidity 95% 95% 89% 92%
Pressure 29.83 in1010.2 mb 29.85 in1010.8 mb 29.83 in1010.2 mb -
Hour Temp Dew Point Humidity Winds Wind Gusts Pressure Precip Precip Rate Daily Precip Total
06:30 AM 56.9°F13.8°C 55.5°F13.1°C 95% Calm Calm -- 29.83 in1010.2 mb 0.00 in0.0 mm 0.00 in/hr0.0 mm/hr 0.00 in0.0 mm
06:20 AM 56.9°F13.8°C 55.5°F13.1°C 95% Calm Calm -- 29.83 in1010.2 mb 0.00 in0.0 mm 0.00 in/hr0.0 mm/hr 0.00 in0.0 mm
06:10 AM 57.0°F13.9°C 55.3°F12.9°C 94% Calm Calm -- 29.83 in1010.2 mb 0.00 in0.0 mm 0.00 in/hr0.0 mm/hr 0.00 in0.0 mm
06:00 AM 57.0°F13.9°C 55.3°F12.9°C 94% Calm Calm -- 29.83 in1010.2 mb 0.00 in0.0 mm 0.00 in/hr0.0 mm/hr 0.00 in0.0 mm
05:50 AM 57.1°F13.9°C 55.4°F13.0°C 94% Calm Calm -- 29.83 in1010.2 mb 0.00 in0.0 mm 0.00 in/hr0.0 mm/hr 0.00 in0.0 mm
05:40 AM 57.4°F14.1°C 55.6°F13.1°C 94% Calm Calm -- 29.83 in1010.2 mb 0.00 in0.0 mm 0.00 in/hr0.0 mm/hr 0.00 in0.0 mm
05:30 AM 57.4°F14.1°C 55.7°F13.2°C 94% Calm Calm -- 29.83 in1010.2 mb 0.00 in0.0 mm 0.00 in/hr0.0 mm/hr 0.00 in0.0 mm
05:20 AM 57.5°F14.2°C 55.5°F13.1°C 93% Calm Calm -- 29.83 in1010.2 mb 0.00 in0.0 mm 0.00 in/hr0.0 mm/hr 0.00 in0.0 mm
05:10 AM 57.7°F14.3°C 55.7°F13.2°C 93% Calm Calm -- 29.83 in1010.2 mb 0.00 in0.0 mm 0.00 in/hr0.0 mm/hr 0.00 in0.0 mm
05:00 AM 57.9°F14.4°C 56.2°F13.4°C 94% Calm Calm -- 29.83 in1010.2 mb 0.00 in0.0 mm 0.00 in/hr0.0 mm/hr 0.00 in0.0 mm
04:50 AM 58.0°F14.4°C 56.0°F13.3°C 93% Calm Calm -- 29.83 in1010.2 mb 0.00 in0.0 mm 0.00 in/hr0.0 mm/hr 0.00 in0.0 mm
04:40 AM 58.3°F14.6°C 56.2°F13.4°C 93% Calm Calm -- 29.83 in1010.2 mb 0.00 in0.0 mm 0.00 in/hr0.0 mm/hr 0.00 in0.0 mm
04:30 AM 58.4°F14.7°C 56.4°F13.6°C 93% Calm Calm -- 29.83 in1010.2 mb 0.00 in0.0 mm 0.00 in/hr0.0 mm/hr 0.00 in0.0 mm
04:20 AM 58.5°F14.7°C 56.5°F13.6°C 93% Calm Calm -- 29.83 in1010.2 mb 0.00 in0.0 mm 0.00 in/hr0.0 mm/hr 0.00 in0.0 mm
04:10 AM 58.4°F14.7°C 56.4°F13.6°C 93% Calm Calm -- 29.83 in1010.2 mb 0.00 in0.0 mm 0.00 in/hr0.0 mm/hr 0.00 in0.0 mm
04:00 AM 58.5°F14.7°C 56.2°F13.4°C 92% Calm Calm -- 29.83 in1010.2 mb 0.00 in0.0 mm 0.00 in/hr0.0 mm/hr 0.00 in0.0 mm
03:50 AM 58.7°F14.8°C 56.4°F13.6°C 92% Calm Calm -- 29.83 in1010.2 mb 0.00 in0.0 mm 0.00 in/hr0.0 mm/hr 0.00 in0.0 mm
03:40 AM 58.9°F14.9°C 56.6°F13.7°C 92% Calm Calm -- 29.83 in1010.2 mb 0.00 in0.0 mm 0.00 in/hr0.0 mm/hr 0.00 in0.0 mm
03:30 AM 59.0°F15.0°C 56.7°F13.7°C 92% Calm Calm -- 29.84 in1010.5 mb 0.00 in0.0 mm 0.00 in/hr0.0 mm/hr 0.00 in0.0 mm
03:20 AM 59.0°F15.0°C 56.4°F13.6°C 91% Calm Calm -- 29.84 in1010.5 mb 0.00 in0.0 mm 0.00 in/hr0.0 mm/hr 0.00 in0.0 mm
03:00 AM 59.2°F15.1°C 56.6°F13.7°C 91% Calm Calm -- 29.84 in1010.5 mb 0.00 in0.0 mm 0.00 in/hr0.0 mm/hr 0.00 in0.0 mm
02:50 AM 59.4°F15.2°C 56.5°F13.6°C 90% Calm Calm -- 29.84 in1010.5 mb 0.00 in0.0 mm 0.00 in/hr0.0 mm/hr 0.00 in0.0 mm
02:40 AM 59.4°F15.2°C 56.4°F13.6°C 90% Calm Calm -- 29.84 in1010.5 mb 0.00 in0.0 mm 0.00 in/hr0.0 mm/hr 0.00 in0.0 mm
02:30 AM 59.4°F15.2°C 56.5°F13.6°C 90% Calm Calm -- 29.84 in1010.5 mb 0.00 in0.0 mm 0.00 in/hr0.0 mm/hr 0.00 in0.0 mm
02:20 AM 59.5°F15.3°C 56.3°F13.5°C 89% Calm Calm -- 29.84 in1010.5 mb 0.00 in0.0 mm 0.00 in/hr0.0 mm/hr 0.00 in0.0 mm
02:10 AM 59.7°F15.4°C 56.5°F13.6°C 89% Calm Calm -- 29.84 in1010.5 mb 0.00 in0.0 mm 0.00 in/hr0.0 mm/hr 0.00 in0.0 mm
02:00 AM 59.8°F15.4°C 56.9°F13.8°C 90% Calm Calm -- 29.84 in1010.5 mb 0.00 in0.0 mm 0.00 in/hr0.0 mm/hr 0.00 in0.0 mm
01:50 AM 59.7°F15.4°C 57.4°F14.1°C 92% Calm Calm -- 29.84 in1010.5 mb 0.00 in0.0 mm 0.00 in/hr0.0 mm/hr 0.00 in0.0 mm
01:40 AM 59.7°F15.4°C 57.1°F13.9°C 91% Calm Calm -- 29.84 in1010.5 mb 0.00 in0.0 mm 0.00 in/hr0.0 mm/hr 0.00 in0.0 mm
01:30 AM 59.7°F15.4°C 56.8°F13.8°C 90% Calm Calm -- 29.84 in1010.5 mb 0.00 in0.0 mm 0.00 in/hr0.0 mm/hr 0.00 in0.0 mm
01:20 AM 59.8°F15.4°C 56.8°F13.8°C 90% Calm Calm -- 29.84 in1010.5 mb 0.00 in0.0 mm 0.00 in/hr0.0 mm/hr 0.00 in0.0 mm
01:10 AM 59.7°F15.4°C 56.8°F13.8°C 90% Calm Calm -- 29.84 in1010.5 mb 0.00 in0.0 mm 0.00 in/hr0.0 mm/hr 0.00 in0.0 mm
01:00 AM 59.8°F15.4°C 56.6°F13.7°C 89% Calm Calm -- 29.85 in1010.8 mb 0.00 in0.0 mm 0.00 in/hr0.0 mm/hr 0.00 in0.0 mm
12:50 AM 59.9°F15.5°C 56.6°F13.7°C 89% Calm Calm -- 29.85 in1010.8 mb 0.00 in0.0 mm 0.00 in/hr0.0 mm/hr 0.00 in0.0 mm
12:40 AM 60.0°F15.6°C 56.7°F13.7°C 89% Calm Calm -- 29.85 in1010.8 mb 0.00 in0.0 mm 0.00 in/hr0.0 mm/hr 0.00 in0.0 mm
12:30 AM 60.2°F15.7°C 56.9°F13.8°C 89% Calm Calm -- 29.85 in1010.8 mb 0.00 in0.0 mm 0.00 in/hr0.0 mm/hr 0.00 in0.0 mm
12:20 AM 60.3°F15.7°C 57.1°F13.9°C 89% Calm Calm -- 29.85 in1010.8 mb 0.00 in0.0 mm 0.00 in/hr0.0 mm/hr 0.00 in0.0 mm
12:10 AM 60.4°F15.8°C 57.1°F13.9°C 89% Calm Calm -- 29.85 in1010.8 mb 0.00 in0.0 mm 0.00 in/hr0.0 mm/hr 0.00 in0.0 mm
12:00 AM 60.5°F15.8°C 57.2°F14.0°C 89% Calm Calm -- 29.85 in1010.8 mb 0.00 in0.0 mm 0.00 in/hr0.0 mm/hr 0.00 in0.0 mm